Time;durP1;ratioP1;P1;durP2;ratioP2;P2;SDS_P1;SDS_P2;PMS_P1;PMS_P2;Temp;Humidity;BMP_temperature;BMP_pressure;BME280_temperature;BME280_humidity;BME280_pressure;Samples;Min_cycle;Max_cycle;Signal;HPM_P1;HPM_P2
2021/05/20 00:01:45;;;;;;;1.27;1.05;;;;;;;5.68;85.11;101125.09;5073851;28;20056;-91
2021/05/20 00:04:17;;;;;;;1.73;1.15;;;;;;;5.56;85.35;101130.47;5083407;28;20508;-91
2021/05/20 00:06:46;;;;;;;2.72;1.20;;;;;;;5.58;85.23;101136.47;5084824;28;20052;-91
2021/05/20 00:09:19;;;;;;;1.55;1.10;;;;;;;5.52;85.62;101135.50;5062246;28;20049;-92
2021/05/20 00:12:00;;;;;;;1.70;1.10;;;;;;;5.46;86.04;101122.97;5068937;28;20056;-91
2021/05/20 00:14:33;;;;;;;2.83;1.20;;;;;;;5.54;85.41;101136.13;5062949;28;20052;-91
2021/05/20 00:17:11;;;;;;;1.70;1.30;;;;;;;5.57;85.79;101135.63;5070764;28;20045;-90
2021/05/20 00:19:44;;;;;;;3.05;1.30;;;;;;;5.57;85.55;101142.94;5063216;28;20049;-92
2021/05/20 00:22:28;;;;;;;1.67;1.13;;;;;;;5.37;85.28;101106.31;5072843;28;20045;-91
2021/05/20 00:25:02;;;;;;;1.70;1.23;;;;;;;5.44;86.47;101130.47;5077012;28;20049;-91
2021/05/20 00:27:35;;;;;;;1.10;1.00;;;;;;;5.44;84.64;101123.22;5071572;28;20045;-91
2021/05/20 00:30:10;;;;;;;2.20;1.10;;;;;;;5.47;85.38;101134.56;5068432;28;20056;-91
2021/05/20 00:32:43;;;;;;;1.85;1.20;;;;;;;5.40;85.51;101126.59;5065083;28;20044;-91
2021/05/20 00:35:41;;;;;;;1.30;1.20;;;;;;;5.37;85.94;101135.16;5078078;28;20049;-91
2021/05/20 00:38:14;;;;;;;1.27;1.10;;;;;;;5.45;85.72;101137.50;5062817;28;20057;-91
2021/05/20 00:40:47;;;;;;;3.40;1.20;;;;;;;5.37;85.17;101137.88;5069056;28;20489;-91
2021/05/20 00:43:20;;;;;;;3.00;1.38;;;;;;;5.40;85.96;101137.38;5070542;28;20055;-90
2021/05/20 00:45:54;;;;;;;1.98;1.10;;;;;;;5.39;84.98;101135.75;5073480;28;20045;-91
2021/05/20 00:48:36;;;;;;;1.50;1.20;;;;;;;5.30;85.20;101129.06;5074777;28;20076;-91
2021/05/20 00:51:09;;;;;;;2.20;1.40;;;;;;;5.24;86.65;101131.63;5083709;28;20063;-88
2021/05/20 00:53:44;;;;;;;3.20;1.42;;;;;;;5.33;85.07;101151.03;5085737;28;20052;-91
2021/05/20 00:56:20;;;;;;;1.42;1.33;;;;;;;5.21;85.84;101134.00;5074340;28;20533;-91
2021/05/20 00:58:48;;;;;;;2.42;1.33;;;;;;;4.98;86.25;101100.50;5085463;28;20535;-91
2021/05/20 01:02:21;;;;;;;2.30;1.60;;;;;;;5.28;85.08;101154.41;5079603;28;20040;-91
2021/05/20 01:04:53;;;;;;;2.28;1.40;;;;;;;5.27;85.46;101157.34;5073544;28;20041;-91
2021/05/20 01:07:26;;;;;;;2.10;1.30;;;;;;;5.07;85.96;101130.69;5059113;28;20032;-92
2021/05/20 01:09:55;;;;;;;2.55;1.35;;;;;;;4.92;86.35;101114.94;5086299;28;20048;-91
2021/05/20 01:13:33;;;;;;;1.40;1.30;;;;;;;5.09;85.95;101161.75;5085462;28;20060;-91
2021/05/20 01:16:01;;;;;;;2.58;1.50;;;;;;;5.13;85.00;101158.63;5057240;28;20049;-92
2021/05/20 01:18:33;;;;;;;1.70;1.50;;;;;;;4.66;85.96;101099.97;5070776;28;20056;-91
2021/05/20 01:21:02;;;;;;;2.10;1.50;;;;;;;5.03;86.21;101168.09;5058186;28;20059;-91
2021/05/20 01:23:35;;;;;;;2.45;1.42;;;;;;;5.09;84.99;101164.44;5058639;28;20052;-91
2021/05/20 01:26:07;;;;;;;2.38;1.50;;;;;;;5.07;85.43;101168.47;5074947;28;20416;-91
2021/05/20 01:28:42;;;;;;;2.33;1.50;;;;;;;4.76;85.65;101124.50;5062304;28;20064;-91
2021/05/20 01:31:10;;;;;;;2.15;1.60;;;;;;;4.99;85.18;101163.38;5074040;28;20037;-89
2021/05/20 01:33:43;;;;;;;3.20;1.80;;;;;;;4.95;86.18;101165.72;5072393;28;20044;-91
2021/05/20 01:36:12;;;;;;;2.13;1.67;;;;;;;4.90;86.33;101177.19;5072936;28;20056;-91
2021/05/20 01:38:42;;;;;;;2.55;1.90;;;;;;;4.94;87.43;101177.56;5073798;28;20412;-92
2021/05/20 01:41:15;;;;;;;2.80;1.98;;;;;;;4.87;87.03;101166.03;5073937;28;20052;-92
2021/05/20 01:43:48;;;;;;;3.10;2.10;;;;;;;4.61;86.55;101143.78;5066579;28;20052;-91
2021/05/20 01:46:53;;;;;;;3.08;1.70;;;;;;;4.84;87.08;101186.19;5068485;28;20048;-91
2021/05/20 01:49:25;;;;;;;2.65;1.83;;;;;;;4.71;86.30;101168.34;5064489;28;20044;-91
2021/05/20 01:51:54;;;;;;;3.45;1.92;;;;;;;4.76;86.37;101184.66;5054542;28;20070;-91
2021/05/20 01:54:26;;;;;;;2.88;2.20;;;;;;;4.82;86.60;101195.56;5055629;28;20049;-91
2021/05/20 01:56:54;;;;;;;3.78;2.50;;;;;;;4.80;87.09;101189.59;5067272;28;20060;-91
2021/05/20 01:59:27;;;;;;;3.58;2.40;;;;;;;4.77;87.33;101207.03;5063767;28;20104;-91
2021/05/20 02:02:00;;;;;;;5.25;2.80;;;;;;;4.92;86.67;101202.06;5072551;28;20057;-91
2021/05/20 02:04:32;;;;;;;3.25;2.20;;;;;;;4.96;86.43;101212.38;5075204;28;20048;-90
2021/05/20 02:07:01;;;;;;;3.38;2.42;;;;;;;4.91;86.75;101197.72;5069733;28;20060;-91
2021/05/20 02:09:34;;;;;;;3.05;2.38;;;;;;;5.06;86.14;101193.78;5070016;28;20047;-92
2021/05/20 02:12:27;;;;;;;4.05;2.90;;;;;;;5.10;86.61;101203.06;5073220;28;20055;-91
2021/05/20 02:14:59;;;;;;;2.83;2.55;;;;;;;5.06;86.08;101202.69;5082423;28;20048;-92
2021/05/20 02:17:55;;;;;;;3.05;2.40;;;;;;;4.99;86.71;101206.56;5064759;28;20052;-90
2021/05/20 02:20:28;;;;;;;5.00;2.38;;;;;;;4.93;87.41;101198.31;5064463;28;20052;-90
2021/05/20 02:23:02;;;;;;;2.67;2.20;;;;;;;4.93;86.32;101202.91;5058964;28;20053;-92
2021/05/20 02:25:34;;;;;;;3.03;2.38;;;;;;;4.83;86.48;101203.41;5060297;28;20392;-91
2021/05/20 02:28:07;;;;;;;3.63;2.88;;;;;;;4.87;87.23;101211.88;5070204;28;20057;-91
2021/05/20 02:30:40;;;;;;;4.13;2.90;;;;;;;4.86;87.37;101208.38;5060632;28;20049;-92
2021/05/20 02:33:13;;;;;;;4.30;3.00;;;;;;;4.81;87.25;101191.25;5070238;28;20052;-92
2021/05/20 02:35:46;;;;;;;5.38;3.00;;;;;;;4.76;87.67;101208.94;5052199;28;20128;-90
2021/05/20 02:38:15;;;;;;;4.85;2.70;;;;;;;4.87;86.53;101215.41;5055999;28;20478;-92
2021/05/20 02:40:48;;;;;;;3.63;2.60;;;;;;;4.85;87.65;101217.50;5068192;28;20057;-91
2021/05/20 02:43:15;;;;;;;3.55;2.95;;;;;;;4.79;87.79;101218.41;5072252;28;20052;-90
2021/05/20 02:45:48;;;;;;;5.10;3.15;;;;;;;4.38;87.57;101141.84;5070618;28;20051;-92
2021/05/20 02:48:21;;;;;;;3.33;2.58;;;;;;;4.77;87.12;101220.53;5069101;28;20045;-91
2021/05/20 02:50:48;;;;;;;4.40;2.70;;;;;;;4.33;86.79;101147.06;5063087;28;20044;-92
2021/05/20 02:53:22;;;;;;;4.20;2.67;;;;;;;4.72;86.72;101220.38;5070516;28;20502;-91
2021/05/20 02:55:55;;;;;;;3.45;2.42;;;;;;;4.65;87.73;101215.06;5068791;28;20047;-91
2021/05/20 02:58:28;;;;;;;3.88;2.28;;;;;;;4.41;86.43;101182.59;5092681;28;20048;-91
2021/05/20 03:01:01;;;;;;;4.15;2.50;;;;;;;4.57;87.13;101216.22;5074976;28;20056;-91
2021/05/20 03:03:34;;;;;;;3.42;2.60;;;;;;;4.29;87.92;101170.13;5060644;28;20060;-92
2021/05/20 03:06:07;;;;;;;3.75;2.25;;;;;;;4.51;87.09;101194.72;5068300;28;20052;-91
2021/05/20 03:08:41;;;;;;;3.35;2.40;;;;;;;4.66;86.94;101221.31;5091826;28;20044;-92
2021/05/20 03:11:13;;;;;;;3.17;2.30;;;;;;;4.13;87.09;101144.59;5074045;28;20052;-92
2021/05/20 03:13:46;;;;;;;3.35;2.30;;;;;;;4.40;87.56;101202.50;5072208;28;20049;-92
2021/05/20 03:16:19;;;;;;;2.30;1.88;;;;;;;4.54;87.95;101219.38;5070235;28;20049;-91
2021/05/20 03:18:47;;;;;;;3.45;1.95;;;;;;;4.54;87.44;101213.13;5063530;28;20504;-92
2021/05/20 03:21:46;;;;;;;1.83;1.60;;;;;;;4.56;87.78;101217.25;5062550;28;20055;-91
2021/05/20 03:24:20;;;;;;;2.65;1.90;;;;;;;4.66;88.19;101213.22;5081208;28;20049;-91
2021/05/20 03:26:52;;;;;;;2.58;1.60;;;;;;;4.63;88.25;101206.41;5069772;28;20040;-92
2021/05/20 03:29:20;;;;;;;2.65;1.77;;;;;;;4.69;86.86;101212.75;5063476;28;20057;-91
2021/05/20 03:31:48;;;;;;;2.83;2.00;;;;;;;4.62;87.61;101210.13;5065666;28;20508;-91
2021/05/20 03:34:21;;;;;;;2.42;1.90;;;;;;;4.62;87.35;101202.03;5067944;28;20045;-91
2021/05/20 03:36:54;;;;;;;2.45;1.80;;;;;;;4.67;86.83;101207.59;5060888;28;20037;-91
2021/05/20 03:39:50;;;;;;;;;;;;;;;4.71;86.87;101210.63;5063630;28;20052;-92
2021/05/20 03:42:23;;;;;;;2.38;1.70;;;;;;;4.79;86.66;101212.22;5061965;28;19928;-91
2021/05/20 03:44:51;;;;;;;3.20;1.98;;;;;;;4.76;86.70;101184.66;5073267;28;20496;-92
2021/05/20 03:47:19;;;;;;;4.07;2.10;;;;;;;4.91;87.89;101210.38;5080484;28;20044;-90
2021/05/20 03:49:51;;;;;;;2.97;2.10;;;;;;;5.01;87.28;101204.44;5085272;27;20067;-91
2021/05/20 03:52:51;;;;;;;2.88;2.00;;;;;;;5.08;86.69;101207.84;5066461;28;20041;-91
2021/05/20 03:55:24;;;;;;;2.75;1.90;;;;;;;5.14;87.06;101203.41;5056921;28;20045;-92
2021/05/20 03:57:57;;;;;;;3.25;2.03;;;;;;;5.15;87.62;101202.34;5059016;28;20553;-91
2021/05/20 04:00:31;;;;;;;2.72;2.00;;;;;;;5.31;86.71;101208.97;5068306;28;20409;-86
2021/05/20 04:03:04;;;;;;;2.97;2.05;;;;;;;5.35;86.72;101219.06;5064111;28;20057;-89
2021/05/20 04:06:04;;;;;;;3.17;2.00;;;;;;;5.44;87.09;101214.16;5068724;28;20052;-89
2021/05/20 04:08:37;;;;;;;2.90;1.90;;;;;;;5.45;86.93;101208.53;5064933;28;20059;-89
2021/05/20 04:11:34;;;;;;;2.90;2.10;;;;;;;5.51;86.88;101214.88;5064718;28;20045;-89
2021/05/20 04:14:08;;;;;;;2.15;1.77;;;;;;;5.70;85.88;101214.78;5066253;28;20570;-90
2021/05/20 04:16:41;;;;;;;3.22;2.15;;;;;;;5.72;86.58;101216.19;5069307;28;20409;-89
2021/05/20 04:19:15;;;;;;;2.72;1.90;;;;;;;5.74;85.72;101210.56;5060963;28;20057;-90
2021/05/20 04:21:48;;;;;;;2.65;1.85;;;;;;;5.75;85.54;101204.91;5073778;28;20412;-89
2021/05/20 04:24:39;;;;;;;;;;;;;;;5.90;85.99;101215.25;5073907;28;20049;-90
2021/05/20 04:27:12;;;;;;;2.33;1.80;;;;;;;5.95;87.20;101207.28;5061199;28;20599;-89
2021/05/20 04:29:45;;;;;;;2.72;1.80;;;;;;;5.93;86.08;101211.25;5054798;28;20390;-89
2021/05/20 04:32:18;;;;;;;2.60;1.63;;;;;;;5.88;85.76;101206.56;5089579;28;20118;-90
2021/05/20 04:34:46;;;;;;;2.33;1.80;;;;;;;5.74;86.83;101210.56;5091949;28;20044;-88
2021/05/20 04:37:40;;;;;;;;;;;;;;;5.68;87.11;101217.72;5073411;28;20052;-89
2021/05/20 04:40:13;;;;;;;2.15;1.60;;;;;;;5.74;86.06;101218.66;5074030;28;19920;-90
2021/05/20 04:42:41;;;;;;;1.52;1.38;;;;;;;5.78;86.21;101223.34;5075282;28;20041;-89
2021/05/20 04:45:28;;;;;;;2.40;1.90;;;;;;;5.79;86.43;101218.78;5088089;28;20040;-90
2021/05/20 04:49:11;;;;;;;2.47;1.70;;;;;;;5.89;86.62;101226.28;5065847;28;20401;-90
2021/05/20 04:51:44;;;;;;;2.25;1.60;;;;;;;6.07;85.28;101234.28;5058712;28;20045;-89
2021/05/20 04:54:17;;;;;;;2.42;1.52;;;;;;;6.15;85.78;101225.03;5091464;28;20051;-89
2021/05/20 04:56:45;;;;;;;3.45;2.00;;;;;;;6.13;84.97;101208.22;5056728;28;20057;-90
2021/05/20 04:59:17;;;;;;;1.90;1.50;;;;;;;6.42;84.81;101236.16;5073549;28;20059;-90
2021/05/20 05:01:51;;;;;;;2.03;1.63;;;;;;;6.66;84.19;101233.38;5075607;28;20393;-89
2021/05/20 05:04:19;;;;;;;2.92;1.50;;;;;;;7.38;82.40;101228.47;5078750;28;20056;-90
2021/05/20 05:06:46;;;;;;;3.72;1.90;;;;;;;8.41;77.11;101236.25;5069488;28;20056;-88
2021/05/20 05:09:19;;;;;;;2.22;1.60;;;;;;;10.61;73.04;101235.69;5080819;28;20056;-90
2021/05/20 05:11:52;;;;;;;1.88;1.42;;;;;;;11.42;65.04;101218.94;5078741;28;20049;-89
2021/05/20 05:14:19;;;;;;;;;;;;;;;11.88;65.96;101229.84;5084836;28;20045;-90
2021/05/20 05:16:54;;;;;;;2.08;1.10;;;;;;;10.32;68.49;101216.22;5073359;28;19925;-91
2021/05/20 05:19:28;;;;;;;1.55;1.20;;;;;;;9.34;74.13;101242.72;5082268;28;20051;-89
2021/05/20 05:22:03;;;;;;;1.70;1.40;;;;;;;8.88;75.84;101239.53;5064409;28;20404;-89
2021/05/20 05:24:30;;;;;;;1.30;1.20;;;;;;;8.60;76.00;101252.22;5053829;28;20059;-90
2021/05/20 05:26:59;;;;;;;2.65;1.42;;;;;;;8.27;77.88;101249.34;5064160;28;20048;-88
2021/05/20 05:29:28;;;;;;;1.67;1.40;;;;;;;8.19;78.98;101252.50;5058362;28;20052;-88
2021/05/20 05:31:57;;;;;;;1.58;1.48;;;;;;;8.22;80.82;101248.47;5054506;28;20052;-89
2021/05/20 05:34:25;;;;;;;2.80;1.73;;;;;;;8.28;78.69;101261.00;5062431;28;20057;-88
2021/05/20 05:36:57;;;;;;;1.67;1.50;;;;;;;8.23;80.94;101256.34;5068975;28;20040;-90
2021/05/20 05:39:30;;;;;;;2.08;1.70;;;;;;;8.24;80.66;101265.28;5084869;28;20059;-88
2021/05/20 05:42:03;;;;;;;2.03;1.60;;;;;;;8.07;80.79;101260.72;5054307;28;20041;-88
2021/05/20 05:44:36;;;;;;;2.33;1.67;;;;;;;8.06;81.17;101256.34;5075816;28;20049;-88
2021/05/20 05:47:10;;;;;;;3.55;1.90;;;;;;;8.10;81.18;101265.63;5069382;28;20071;-86
2021/05/20 05:49:41;;;;;;;3.03;1.70;;;;;;;8.03;79.91;101265.00;5070465;28;20512;-87
2021/05/20 05:52:09;;;;;;;2.55;1.55;;;;;;;8.07;80.49;101263.44;5063012;28;20488;-85
2021/05/20 05:54:45;;;;;;;2.60;1.80;;;;;;;8.08;79.92;101262.38;5060065;28;20053;-92
2021/05/20 05:57:18;;;;;;;1.85;1.60;;;;;;;8.05;80.40;101252.03;5065395;28;20366;-85
2021/05/20 05:59:51;;;;;;;4.28;1.80;;;;;;;8.16;81.17;101259.22;5063721;28;20417;-86
2021/05/20 06:02:25;;;;;;;3.13;2.05;;;;;;;8.28;81.95;101261.00;5065196;28;20080;-86
2021/05/20 06:04:59;;;;;;;2.45;1.90;;;;;;;8.39;82.72;101254.66;5059093;28;20064;-86
2021/05/20 06:07:58;;;;;;;3.10;1.90;;;;;;;8.62;79.92;101256.34;5063286;28;20052;-86
2021/05/20 06:10:35;;;;;;;2.25;1.67;;;;;;;8.63;82.80;101260.69;5082644;28;20052;-86
2021/05/20 06:13:08;;;;;;;2.22;1.65;;;;;;;8.74;81.99;101248.06;5058233;28;20052;-86
2021/05/20 06:15:35;;;;;;;;;;;;;;;8.58;79.88;101251.66;5064363;28;20052;-86
2021/05/20 06:18:04;;;;;;;2.55;1.77;;;;;;;8.65;80.84;101250.41;5075659;28;20053;-87
2021/05/20 06:20:32;;;;;;;2.63;1.90;;;;;;;8.76;80.45;101267.63;5087160;28;20059;-86
2021/05/20 06:23:07;;;;;;;3.53;2.00;;;;;;;8.85;80.42;101263.41;5061819;28;20392;-86
2021/05/20 06:25:41;;;;;;;2.45;1.88;;;;;;;8.92;79.97;101265.91;5076502;28;20146;-87
2021/05/20 06:28:08;;;;;;;3.20;2.30;;;;;;;9.09;81.37;101273.97;5062007;28;20041;-86
2021/05/20 06:30:45;;;;;;;4.15;2.33;;;;;;;9.25;79.71;101268.69;5062169;28;20041;-87
2021/05/20 06:33:15;;;;;;;2.83;2.15;;;;;;;9.25;81.29;101271.41;5059398;28;20119;-86
2021/05/20 06:35:48;;;;;;;4.10;2.20;;;;;;;9.33;79.23;101268.22;5081248;28;20052;-87
2021/05/20 06:38:20;;;;;;;2.90;2.15;;;;;;;9.26;80.59;101273.88;5063385;28;20049;-87
2021/05/20 06:40:54;;;;;;;3.38;2.00;;;;;;;9.39;77.35;101278.09;5057987;28;20067;-87
2021/05/20 06:43:27;;;;;;;3.08;2.08;;;;;;;9.39;80.11;101274.53;5062203;28;20056;-87
2021/05/20 06:46:00;;;;;;;3.30;2.10;;;;;;;9.44;77.61;101277.31;5074666;28;20052;-87
2021/05/20 06:48:36;;;;;;;2.80;2.00;;;;;;;9.38;77.83;101272.88;5063992;28;20053;-87
2021/05/20 06:51:08;;;;;;;3.60;2.20;;;;;;;9.11;78.65;101281.84;5062218;28;20048;-86
2021/05/20 06:53:37;;;;;;;;;;;;;;;9.04;79.44;101289.38;5064038;28;20053;-87
2021/05/20 06:56:15;;;;;;;3.38;2.22;;;;;;;8.95;79.54;101272.72;5073736;28;19928;-88
2021/05/20 07:01:33;;;;;;;3.45;2.35;;;;;;;9.22;78.86;101285.50;5060911;28;19947;-87
2021/05/20 07:04:02;;;;;;;;;;;;;;;9.33;77.87;101290.78;5059383;28;20531;-86
2021/05/20 07:06:35;;;;;;;3.95;2.67;;;;;;;9.53;78.44;101287.44;5055622;28;19932;-87
2021/05/20 07:09:21;;;;;;;4.30;2.95;;;;;;;9.91;80.66;101281.22;5059137;28;20056;-86
2021/05/20 07:12:00;;;;;;;2.53;1.83;;;;;;;9.92;73.90;101280.97;5066118;28;20056;-86
2021/05/20 07:14:33;;;;;;;3.10;1.98;;;;;;;9.88;74.82;101286.09;5061460;28;20059;-86
2021/05/20 07:17:01;;;;;;;3.47;2.10;;;;;;;9.93;73.73;101292.66;5055649;28;20060;-86
2021/05/20 07:19:34;;;;;;;2.90;1.90;;;;;;;9.94;74.52;101284.22;5057222;28;20048;-87
2021/05/20 07:22:13;;;;;;;2.40;1.98;;;;;;;10.05;74.46;101279.69;5062389;28;20055;-86
2021/05/20 07:24:46;;;;;;;2.30;1.80;;;;;;;10.31;75.09;101282.56;5069344;28;20052;-87
2021/05/20 07:27:14;;;;;;;4.45;1.83;;;;;;;10.08;72.90;101286.50;5069590;28;20067;-87
2021/05/20 07:29:46;;;;;;;2.88;2.00;;;;;;;10.10;76.20;101271.56;5064130;28;20056;-87
2021/05/20 07:32:20;;;;;;;2.75;2.03;;;;;;;10.32;75.17;101289.66;5064289;28;20045;-87
2021/05/20 07:34:54;;;;;;;2.95;1.92;;;;;;;10.10;76.17;101266.13;5076088;28;20059;-87
2021/05/20 07:37:26;;;;;;;3.05;2.20;;;;;;;9.94;71.92;101272.53;5064102;28;20055;-86
2021/05/20 07:39:54;;;;;;;;;;;;;;;10.10;74.27;101287.88;5066911;28;20067;-86
2021/05/20 07:43:28;;;;;;;3.00;2.08;;;;;;;10.16;73.74;101284.13;5078957;28;19932;-87
2021/05/20 07:46:52;;;;;;;3.63;1.85;;;;;;;10.18;73.70;101286.59;5082170;28;20056;-86
2021/05/20 07:49:27;;;;;;;3.05;1.80;;;;;;;10.27;74.19;101282.28;5079842;28;20048;-87
2021/05/20 07:52:01;;;;;;;2.53;1.80;;;;;;;10.44;71.99;101279.44;5078592;28;20531;-86
2021/05/20 07:54:35;;;;;;;4.90;2.40;;;;;;;10.26;72.35;101280.66;5064081;28;20056;-87
2021/05/20 07:57:03;;;;;;;3.53;2.15;;;;;;;10.35;71.32;101264.69;5060356;28;20056;-85
2021/05/20 07:59:36;;;;;;;2.80;1.92;;;;;;;10.68;71.63;101276.28;5063144;28;20060;-86
2021/05/20 08:02:11;;;;;;;;;;;;;;;10.89;71.41;101280.69;5077323;28;20739;-86
2021/05/20 08:04:45;;;;;;;3.20;1.88;;;;;;;11.12;68.63;101270.41;5062884;28;19928;-86
2021/05/20 08:07:28;;;;;;;2.78;2.00;;;;;;;11.66;70.00;101271.03;5080664;28;20057;-87
2021/05/20 08:10:22;;;;;;;3.20;1.88;;;;;;;11.88;66.69;101268.84;5076309;28;20060;-87
2021/05/20 08:12:56;;;;;;;2.30;1.90;;;;;;;11.83;66.00;101248.94;5062707;28;20052;-86
2021/05/20 08:15:33;;;;;;;2.40;1.80;;;;;;;11.77;67.52;101263.69;5064466;28;20067;-86
2021/05/20 08:18:06;;;;;;;;;;;;;;;11.36;66.08;101259.81;5065246;28;20048;-86
2021/05/20 08:20:39;;;;;;;2.65;1.75;;;;;;;11.37;67.80;101272.38;5058746;28;20585;-86
2021/05/20 08:23:08;;;;;;;3.88;2.10;;;;;;;11.16;67.32;101266.06;5060862;28;20061;-87
2021/05/20 08:26:03;;;;;;;4.05;2.10;;;;;;;11.12;69.18;101261.44;5075735;28;20052;-86
2021/05/20 08:28:38;;;;;;;3.83;1.80;;;;;;;11.22;70.91;101270.44;5057959;28;20579;-86
2021/05/20 08:31:17;;;;;;;2.67;1.77;;;;;;;11.33;65.50;101262.28;5065646;28;20051;-87
2021/05/20 08:33:57;;;;;;;2.13;1.40;;;;;;;11.45;65.17;101262.00;5062446;28;20048;-86
2021/05/20 08:36:31;;;;;;;2.08;1.30;;;;;;;11.54;64.64;101268.56;5061827;28;20048;-86
2021/05/20 08:39:07;;;;;;;3.30;1.80;;;;;;;11.71;66.04;101266.41;5065621;28;20048;-86
2021/05/20 08:41:35;;;;;;;2.72;1.80;;;;;;;11.84;64.24;101265.03;5061284;28;20051;-87
2021/05/20 08:44:08;;;;;;;2.53;1.58;;;;;;;12.09;68.38;101260.66;5059447;28;20052;-87
2021/05/20 08:46:41;;;;;;;2.30;1.52;;;;;;;12.03;64.96;101265.31;5058228;28;20064;-86
2021/05/20 08:49:14;;;;;;;2.80;1.83;;;;;;;12.15;69.01;101245.94;5061318;28;20059;-86
2021/05/20 08:51:47;;;;;;;2.15;1.52;;;;;;;11.84;65.37;101237.75;5077028;28;20057;-87
2021/05/20 08:54:26;;;;;;;2.08;1.50;;;;;;;11.83;63.85;101262.56;5075734;27;20067;-87
2021/05/20 08:56:55;;;;;;;1.83;1.50;;;;;;;11.71;64.59;101262.84;5076850;28;21134;-86
2021/05/20 08:59:28;;;;;;;1.52;1.33;;;;;;;11.54;66.12;101260.38;5077181;28;20053;-85
2021/05/20 09:02:00;;;;;;;1.88;1.40;;;;;;;11.31;63.39;101256.28;5059141;28;20045;-87
2021/05/20 09:04:33;;;;;;;1.60;1.13;;;;;;;11.40;64.36;101252.75;5061384;28;20532;-87
2021/05/20 09:07:06;;;;;;;;;;;;;;;11.80;63.89;101260.41;5058287;28;20071;-86
2021/05/20 09:09:39;;;;;;;2.05;1.40;;;;;;;12.00;61.91;101251.38;5059736;28;21155;-84
2021/05/20 09:12:08;;;;;;;1.52;1.35;;;;;;;12.18;61.90;101252.72;5075524;28;20413;-86
2021/05/20 09:14:43;;;;;;;2.25;1.30;;;;;;;12.52;61.20;101231.03;5059689;28;20184;-86
2021/05/20 09:17:17;;;;;;;2.05;1.30;;;;;;;12.36;62.69;101238.50;5058393;28;20036;-85
2021/05/20 09:19:53;;;;;;;2.08;1.25;;;;;;;12.93;62.74;101249.16;5057722;28;20405;-85
2021/05/20 09:22:27;;;;;;;2.58;1.40;;;;;;;12.65;61.65;101239.72;5058202;28;20048;-87
2021/05/20 09:25:00;;;;;;;2.22;1.30;;;;;;;12.36;60.35;101243.94;5063793;28;20053;-86
2021/05/20 09:27:35;;;;;;;1.20;1.10;;;;;;;12.96;60.29;101242.31;5075516;28;20957;-87
2021/05/20 09:30:11;;;;;;;1.88;1.20;;;;;;;13.34;61.75;101227.03;5060553;28;20417;-87
2021/05/20 09:32:42;;;;;;;1.40;1.20;;;;;;;13.31;59.45;101234.97;5059778;28;20408;-86
2021/05/20 09:35:16;;;;;;;1.20;1.00;;;;;;;13.10;59.30;101230.50;5061024;28;20052;-86
2021/05/20 09:37:53;;;;;;;1.00;0.90;;;;;;;12.87;57.98;101233.88;5056999;28;20508;-86
2021/05/20 09:40:30;;;;;;;1.52;0.88;;;;;;;12.75;56.24;101232.31;5059471;28;20044;-86
2021/05/20 09:43:00;;;;;;;1.63;0.90;;;;;;;12.69;56.82;101238.06;5059807;28;20041;-86
2021/05/20 09:45:35;;;;;;;1.40;0.90;;;;;;;12.65;57.67;101240.56;5059255;28;20055;-87
2021/05/20 09:48:09;;;;;;;1.10;0.90;;;;;;;12.63;59.79;101234.53;5056456;28;20067;-86
2021/05/20 09:50:39;;;;;;;1.00;0.90;;;;;;;12.60;58.76;101224.19;5062526;28;20053;-87
2021/05/20 09:53:14;;;;;;;0.85;0.85;;;;;;;12.99;58.39;101234.34;5061340;28;20049;-85
2021/05/20 09:55:52;;;;;;;0.95;0.80;;;;;;;13.01;59.16;101237.63;5057715;28;20507;-87
2021/05/20 09:58:26;;;;;;;1.10;0.93;;;;;;;13.09;56.34;101237.03;5057673;28;20056;-86
2021/05/20 10:01:04;;;;;;;1.27;0.93;;;;;;;12.95;56.00;101244.22;5057681;28;20049;-87
2021/05/20 10:03:52;;;;;;;0.85;0.80;;;;;;;12.75;60.25;101231.50;5059943;28;20065;-85
2021/05/20 10:06:35;;;;;;;0.80;0.80;;;;;;;12.81;60.05;101232.28;5060210;28;20067;-86
2021/05/20 10:09:13;;;;;;;1.48;0.90;;;;;;;13.08;57.31;101224.47;5060245;28;20048;-87
2021/05/20 10:11:47;;;;;;;2.33;0.73;;;;;;;13.30;57.27;101223.25;5073179;27;20055;-84
2021/05/20 10:14:24;;;;;;;1.33;0.75;;;;;;;13.74;56.39;101216.03;5056039;28;20142;-90
2021/05/20 10:16:53;;;;;;;1.02;0.70;;;;;;;13.76;59.87;101213.84;5058719;28;20064;-87
2021/05/20 10:19:21;;;;;;;1.75;0.95;;;;;;;13.39;58.57;101209.78;5062238;28;20530;-84
2021/05/20 10:21:54;;;;;;;1.10;0.70;;;;;;;13.35;55.98;101216.91;5057625;28;20052;-86
2021/05/20 10:24:22;;;;;;;0.90;0.75;;;;;;;13.00;59.11;101227.00;5059819;28;20053;-86
2021/05/20 10:26:51;;;;;;;2.08;0.90;;;;;;;12.62;61.37;101224.72;5060363;28;20060;-88
2021/05/20 10:29:24;;;;;;;0.75;0.70;;;;;;;12.24;64.70;101227.88;5076127;28;20048;-87
2021/05/20 10:31:55;;;;;;;;;;;;;;;11.72;66.12;101227.13;5060199;28;20079;-85
2021/05/20 10:34:23;;;;;;;0.80;0.80;;;;;;;11.98;69.19;101220.84;5058168;28;19924;-85
2021/05/20 10:36:59;;;;;;;0.93;0.82;;;;;;;12.01;64.57;101232.00;5063444;28;20056;-84
2021/05/20 10:39:32;;;;;;;0.90;0.90;;;;;;;12.28;65.35;101233.59;5056788;28;20045;-84
2021/05/20 10:42:06;;;;;;;1.30;0.90;;;;;;;12.61;65.68;101214.91;5076284;28;20460;-88
2021/05/20 10:45:18;;;;;;;1.38;0.80;;;;;;;13.08;67.70;101215.47;5060100;28;20114;-86
2021/05/20 10:48:21;;;;;;;0.90;0.80;;;;;;;12.88;63.20;101210.94;5061298;28;20049;-87
2021/05/20 10:51:22;;;;;;;1.02;0.70;;;;;;;12.90;64.10;101212.28;5060765;28;20041;-87
2021/05/20 10:54:15;;;;;;;0.77;0.70;;;;;;;12.78;66.30;101209.09;5063040;28;20493;-86
2021/05/20 10:56:58;;;;;;;0.50;0.40;;;;;;;11.87;64.59;101237.19;5076504;28;20064;-88
2021/05/20 10:59:43;;;;;;;0.30;0.30;;;;;;;10.64;66.86;101234.34;5059165;28;20056;-85
2021/05/20 11:02:17;;;;;;;0.30;0.30;;;;;;;10.35;69.84;101248.34;5057541;28;20049;-87
2021/05/20 11:04:45;;;;;;;0.60;0.40;;;;;;;9.94;71.66;101250.78;5077140;28;20725;-86
2021/05/20 11:07:46;;;;;;;0.30;0.30;;;;;;;9.65;75.03;101251.13;5062273;28;20064;-86
2021/05/20 11:10:14;;;;;;;0.30;0.30;;;;;;;9.76;75.37;101252.03;5075487;28;20170;-86
2021/05/20 11:12:55;;;;;;;1.10;1.00;;;;;;;9.61;74.27;101237.25;5058111;28;20763;-84
2021/05/20 11:15:32;;;;;;;0.28;0.28;;;;;;;9.85;76.10;101228.72;5064094;28;20056;-85
2021/05/20 11:18:31;;;;;;;0.30;0.30;;;;;;;9.88;72.42;101211.88;5058126;28;20060;-86
2021/05/20 11:21:04;;;;;;;0.30;0.30;;;;;;;10.27;73.54;101216.19;5061690;28;20044;-86
2021/05/20 11:23:37;;;;;;;0.22;0.22;;;;;;;10.42;72.13;101202.66;5062906;28;20064;-87
2021/05/20 11:26:24;;;;;;;0.30;0.30;;;;;;;10.82;74.27;101205.81;5062411;28;20589;-86
2021/05/20 11:29:11;;;;;;;0.30;0.30;;;;;;;11.01;69.25;101212.38;5079983;28;20059;-85
2021/05/20 11:31:44;;;;;;;0.20;0.20;;;;;;;11.19;71.79;101202.88;5060861;28;20056;-86
2021/05/20 11:36:59;;;;;;;0.52;0.32;;;;;;;11.66;68.33;101206.41;5062766;28;20045;-86
2021/05/20 11:39:32;;;;;;;0.30;0.30;;;;;;;11.95;67.42;101199.59;5060316;28;20056;-85
2021/05/20 11:42:04;;;;;;;0.30;0.30;;;;;;;12.19;68.03;101189.72;5062031;28;20048;-86
2021/05/20 11:44:39;;;;;;;0.30;0.25;;;;;;;12.14;63.66;101197.06;5075708;28;20052;-86
2021/05/20 11:47:14;;;;;;;0.40;0.40;;;;;;;12.23;63.45;101181.75;5061940;28;20052;-86
2021/05/20 11:50:17;;;;;;;0.30;0.30;;;;;;;12.39;66.21;101186.06;5062868;28;20056;-86
2021/05/20 11:52:49;;;;;;;0.93;0.50;;;;;;;12.55;65.43;101180.53;5059458;28;20053;-86
2021/05/20 11:55:19;;;;;;;0.40;0.40;;;;;;;12.79;64.92;101182.56;5066489;28;20063;-87
2021/05/20 11:58:09;;;;;;;0.52;0.52;;;;;;;13.41;61.72;101180.28;5065059;28;20044;-86
2021/05/20 12:00:41;;;;;;;0.52;0.50;;;;;;;13.51;58.29;101169.22;5063949;28;20047;-86
2021/05/20 12:03:15;;;;;;;0.40;0.40;;;;;;;13.61;58.74;101163.66;5077803;28;20056;-86
2021/05/20 12:05:43;;;;;;;0.93;0.50;;;;;;;13.84;57.97;101157.72;5060881;28;20126;-86
2021/05/20 12:08:18;;;;;;;0.88;0.60;;;;;;;13.32;59.21;101166.34;5078613;28;20049;-87
2021/05/20 12:10:51;;;;;;;0.57;0.50;;;;;;;13.38;61.02;101157.06;5081418;28;20049;-88
2021/05/20 12:13:34;;;;;;;0.40;0.40;;;;;;;13.15;57.77;101155.03;5061439;28;21293;-86
2021/05/20 12:16:07;;;;;;;0.50;0.50;;;;;;;12.86;59.40;101159.31;5058716;28;20064;-85
2021/05/20 12:18:41;;;;;;;2.22;1.30;;;;;;;12.76;60.53;101156.69;5068012;28;20041;-86
2021/05/20 12:21:14;;;;;;;0.60;0.60;;;;;;;12.58;64.68;101166.31;5061368;28;20044;-86